createdAt,value
2022-12-23T00:01:21.767Z,6.80
2022-12-23T00:03:48.575Z,6.80
2022-12-23T00:06:17.051Z,6.80
2022-12-23T00:08:44.394Z,6.80
2022-12-23T00:11:13.403Z,6.80
2022-12-23T00:13:41.758Z,6.80
2022-12-23T00:16:10.355Z,6.80
2022-12-23T00:18:37.523Z,6.80
2022-12-23T00:21:09.161Z,6.80
2022-12-23T00:23:37.930Z,6.80
2022-12-23T00:26:04.890Z,6.80
2022-12-23T00:28:31.972Z,6.80
2022-12-23T00:31:01.967Z,6.80
2022-12-23T00:33:30.570Z,6.80
2022-12-23T00:35:57.379Z,6.80
2022-12-23T00:38:24.665Z,6.80
2022-12-23T00:40:51.514Z,6.80
2022-12-23T00:43:18.299Z,6.80
2022-12-23T00:45:45.139Z,6.80
2022-12-23T00:48:13.396Z,6.80
2022-12-23T00:50:40.095Z,6.80
2022-12-23T00:53:07.193Z,6.80
2022-12-23T00:55:33.994Z,6.80
2022-12-23T00:58:00.719Z,6.80
2022-12-23T01:00:27.448Z,6.80
2022-12-23T01:02:54.289Z,6.80
2022-12-23T01:05:22.695Z,6.80
2022-12-23T01:07:49.405Z,6.80
2022-12-23T01:10:16.300Z,6.80
2022-12-23T01:12:43.007Z,6.80
2022-12-23T01:15:10.522Z,6.80
2022-12-23T01:17:37.250Z,6.90
2022-12-23T01:20:04.775Z,6.80
2022-12-23T01:22:33.003Z,6.90
2022-12-23T01:24:59.756Z,6.80
2022-12-23T01:27:26.445Z,6.80
2022-12-23T01:29:53.154Z,6.90
2022-12-23T01:32:20.107Z,6.80
2022-12-23T01:34:47.004Z,6.90
2022-12-23T01:37:13.745Z,6.90
2022-12-23T01:39:42.012Z,6.90
2022-12-23T01:42:12.966Z,6.90
2022-12-23T01:44:51.602Z,6.90
2022-12-23T01:47:27.490Z,6.90
2022-12-23T01:49:57.457Z,6.90
2022-12-23T01:52:24.628Z,6.90
2022-12-23T01:54:53.384Z,6.90
2022-12-23T01:57:20.657Z,6.90
2022-12-23T01:59:47.770Z,6.90
2022-12-23T02:02:14.664Z,6.90
2022-12-23T02:04:43.288Z,6.90
2022-12-23T02:07:11.048Z,6.90
2022-12-23T02:09:39.737Z,7.00
2022-12-23T02:12:35.670Z,6.90
2022-12-23T02:15:25.022Z,7.00
2022-12-23T02:18:00.786Z,7.00
2022-12-23T02:20:57.836Z,7.00
2022-12-23T02:24:02.552Z,7.00
2022-12-23T02:26:55.941Z,7.00
2022-12-23T02:29:58.341Z,7.00
2022-12-23T02:32:34.984Z,7.00
2022-12-23T02:35:10.710Z,7.00
2022-12-23T02:37:44.058Z,7.10
2022-12-23T02:40:14.618Z,7.10
2022-12-23T02:42:47.951Z,7.10
2022-12-23T02:45:20.353Z,7.00
2022-12-23T02:47:52.138Z,7.00
2022-12-23T02:50:23.528Z,7.00
2022-12-23T02:52:52.209Z,7.00
2022-12-23T02:55:23.640Z,7.10
2022-12-23T02:57:52.745Z,7.10
2022-12-23T03:00:20.789Z,7.10
2022-12-23T03:02:49.203Z,7.10
2022-12-23T03:05:27.230Z,7.10
2022-12-23T03:07:56.711Z,7.10
2022-12-23T03:10:35.937Z,7.10
2022-12-23T03:13:14.378Z,7.20
2022-12-23T03:15:46.931Z,7.10
2022-12-23T03:18:28.150Z,7.20
2022-12-23T03:20:59.483Z,7.20
2022-12-23T03:23:30.564Z,7.10
2022-12-23T03:26:02.111Z,7.20
2022-12-23T03:28:37.480Z,7.20
2022-12-23T03:31:07.565Z,7.20
2022-12-23T03:33:40.080Z,7.20
2022-12-23T03:36:12.876Z,7.20
2022-12-23T03:38:41.485Z,7.20
2022-12-23T03:41:11.174Z,7.20
2022-12-23T03:43:50.737Z,7.20
2022-12-23T03:46:23.245Z,7.20
2022-12-23T03:48:54.211Z,7.20
2022-12-23T03:51:25.597Z,7.20
2022-12-23T03:53:56.788Z,7.20
2022-12-23T03:56:28.468Z,7.20
2022-12-23T03:58:59.191Z,7.20
2022-12-23T04:01:37.206Z,7.20
2022-12-23T04:04:09.433Z,7.20
2022-12-23T04:06:43.302Z,7.20
2022-12-23T04:09:12.672Z,7.30
2022-12-23T04:11:41.357Z,7.20
2022-12-23T04:14:08.232Z,7.20
2022-12-23T04:16:35.130Z,7.20
2022-12-23T04:19:01.921Z,7.30
2022-12-23T04:21:30.023Z,7.30
2022-12-23T04:23:56.768Z,7.30
2022-12-23T04:26:23.559Z,7.30
2022-12-23T04:28:50.275Z,7.30
2022-12-23T04:31:17.109Z,7.30
2022-12-23T04:33:43.890Z,7.30
2022-12-23T04:36:10.760Z,7.30
2022-12-23T04:38:38.836Z,7.30
2022-12-23T04:41:05.560Z,7.30
2022-12-23T04:43:32.390Z,7.30
2022-12-23T04:45:59.115Z,7.30
2022-12-23T04:48:25.849Z,7.40
2022-12-23T04:50:52.607Z,7.40
2022-12-23T04:53:19.333Z,7.40
2022-12-23T04:55:51.658Z,7.40
2022-12-23T04:58:18.390Z,7.40
2022-12-23T05:00:45.186Z,7.40
2022-12-23T05:03:12.185Z,7.40
2022-12-23T05:05:43.107Z,7.40
2022-12-23T05:08:09.957Z,7.40
2022-12-23T05:10:36.760Z,7.40
2022-12-23T05:13:04.909Z,7.40
2022-12-23T05:15:31.856Z,7.40
2022-12-23T05:17:58.719Z,7.40
2022-12-23T05:20:25.453Z,7.40
2022-12-23T05:22:52.187Z,7.40
2022-12-23T05:25:19.034Z,7.40
2022-12-23T05:27:45.779Z,7.40
2022-12-23T05:30:14.030Z,7.40
2022-12-23T05:32:40.740Z,7.40
2022-12-23T05:35:08.091Z,7.40
2022-12-23T05:37:34.806Z,7.40
2022-12-23T05:40:01.584Z,7.40
2022-12-23T05:42:28.451Z,7.40
2022-12-23T05:44:55.218Z,7.40
2022-12-23T05:47:23.260Z,7.40
2022-12-23T05:49:49.964Z,7.40
2022-12-23T05:52:16.725Z,7.40
2022-12-23T05:54:43.408Z,7.40
2022-12-23T05:57:10.134Z,7.50
2022-12-23T05:59:36.917Z,7.50
2022-12-23T06:02:04.014Z,7.40
2022-12-23T06:04:32.255Z,7.50
2022-12-23T06:06:59.021Z,7.50
2022-12-23T06:09:25.823Z,7.50
2022-12-23T06:11:52.587Z,7.50
2022-12-23T06:14:22.640Z,7.50
2022-12-23T06:16:53.670Z,7.50
2022-12-23T06:19:20.503Z,7.50
2022-12-23T06:21:48.706Z,7.50
2022-12-23T06:24:15.437Z,7.50
2022-12-23T06:26:42.718Z,7.50
2022-12-23T06:29:11.057Z,7.50
2022-12-23T06:31:37.845Z,7.50
2022-12-23T06:34:04.641Z,7.50
2022-12-23T06:36:31.578Z,7.50
2022-12-23T06:38:59.661Z,7.50
2022-12-23T06:41:26.398Z,7.50
2022-12-23T06:43:54.595Z,7.60
2022-12-23T06:46:21.617Z,7.60
2022-12-23T06:48:48.387Z,7.60
2022-12-23T06:51:15.237Z,7.60
2022-12-23T06:53:41.946Z,7.60
2022-12-23T06:56:09.997Z,7.60
2022-12-23T06:58:36.759Z,7.60
2022-12-23T07:01:03.697Z,7.60
2022-12-23T07:03:30.496Z,7.60
2022-12-23T07:05:57.280Z,7.60
2022-12-23T07:08:24.045Z,7.60
2022-12-23T07:10:50.757Z,7.60
2022-12-23T07:13:18.835Z,7.60
2022-12-23T07:15:45.529Z,7.60
2022-12-23T07:18:12.363Z,7.60
2022-12-23T07:20:39.073Z,7.60
2022-12-23T07:23:05.840Z,7.60
2022-12-23T07:25:32.553Z,7.60
2022-12-23T07:27:59.347Z,7.60
2022-12-23T07:30:27.510Z,7.70
2022-12-23T07:32:54.242Z,7.60
2022-12-23T07:35:21.080Z,7.60
2022-12-23T07:37:51.497Z,7.70
2022-12-23T07:40:18.317Z,7.60
2022-12-23T07:42:47.709Z,7.70
2022-12-23T07:45:14.506Z,7.70
2022-12-23T07:47:42.928Z,7.70
2022-12-23T07:50:10.122Z,7.70
2022-12-23T07:52:37.530Z,7.70
2022-12-23T07:55:04.928Z,7.70
2022-12-23T07:57:31.873Z,7.70
2022-12-23T07:59:58.976Z,7.70
2022-12-23T08:02:26.012Z,7.70
2022-12-23T08:04:54.170Z,7.70
2022-12-23T08:07:20.976Z,7.70
2022-12-23T08:09:47.668Z,7.70
2022-12-23T08:12:14.488Z,7.70
2022-12-23T08:14:41.188Z,7.70
2022-12-23T08:17:07.967Z,7.80
2022-12-23T08:19:34.779Z,7.70
2022-12-23T08:22:02.961Z,7.70
2022-12-23T08:24:29.735Z,7.80
2022-12-23T08:26:56.464Z,7.80
2022-12-23T08:29:23.224Z,7.80
2022-12-23T08:31:49.978Z,7.80
2022-12-23T08:34:17.317Z,7.80
2022-12-23T08:36:44.048Z,7.80
2022-12-23T08:39:12.499Z,7.80
2022-12-23T08:41:41.289Z,7.80
2022-12-23T08:44:09.752Z,7.80
2022-12-23T08:46:37.434Z,7.80
2022-12-23T08:49:05.485Z,7.80
2022-12-23T08:51:32.302Z,7.80
2022-12-23T08:54:01.445Z,7.80
2022-12-23T08:56:31.575Z,7.80
2022-12-23T08:58:58.638Z,7.80
2022-12-23T09:01:27.776Z,7.80
2022-12-23T09:03:55.041Z,7.80
2022-12-23T09:06:28.856Z,7.80
2022-12-23T09:08:56.672Z,7.80
2022-12-23T09:11:25.939Z,7.80
2022-12-23T09:13:55.084Z,7.90
2022-12-23T09:16:21.970Z,7.80
2022-12-23T09:18:48.963Z,7.90
2022-12-23T09:21:18.817Z,7.90
2022-12-23T09:23:46.078Z,7.90
2022-12-23T09:26:18.774Z,7.90
2022-12-23T09:28:45.685Z,7.90
2022-12-23T09:31:14.639Z,7.90
2022-12-23T09:33:41.887Z,8.00
2022-12-23T09:36:08.998Z,7.90
2022-12-23T09:38:35.849Z,7.90
2022-12-23T09:41:04.237Z,8.00
2022-12-23T09:43:43.418Z,8.00
2022-12-23T09:46:16.514Z,8.00
2022-12-23T09:48:52.340Z,8.00
2022-12-23T09:51:22.109Z,8.00
2022-12-23T09:54:00.511Z,8.00
2022-12-23T09:56:35.655Z,8.00
2022-12-23T09:59:12.378Z,8.00
2022-12-23T10:01:48.834Z,8.00
2022-12-23T10:04:46.880Z,8.10
2022-12-23T10:07:29.347Z,8.10
2022-12-23T10:09:57.708Z,8.10
2022-12-23T10:12:37.368Z,8.10
2022-12-23T10:15:18.977Z,8.10
2022-12-23T10:17:51.729Z,8.10
2022-12-23T10:20:24.997Z,8.10
2022-12-23T10:22:52.787Z,8.20
2022-12-23T10:25:25.200Z,8.20
2022-12-23T10:27:51.979Z,8.20
2022-12-23T10:30:51.601Z,8.20
2022-12-23T10:33:17.660Z,8.20
2022-12-23T10:35:53.763Z,8.20
2022-12-23T10:38:32.854Z,8.20
2022-12-23T10:41:09.642Z,8.20
2022-12-23T10:43:47.189Z,8.20
2022-12-23T10:46:21.745Z,8.20
2022-12-23T10:48:59.930Z,8.20
2022-12-23T10:51:30.980Z,8.20
2022-12-23T10:54:02.128Z,8.20
2022-12-23T10:56:29.544Z,8.20
2022-12-23T10:58:59.259Z,8.30
2022-12-23T11:01:27.850Z,8.20
2022-12-23T11:04:04.377Z,8.30
2022-12-23T11:06:37.213Z,8.30
2022-12-23T11:09:05.472Z,8.30
2022-12-23T11:11:55.634Z,8.30
2022-12-23T11:14:35.299Z,8.30
2022-12-23T11:17:02.961Z,8.30
2022-12-23T11:19:31.481Z,8.30
2022-12-23T11:21:59.932Z,8.30
2022-12-23T11:24:28.340Z,8.30
2022-12-23T11:27:01.507Z,8.30
2022-12-23T11:29:31.652Z,8.30
2022-12-23T11:31:59.094Z,8.30
2022-12-23T11:34:27.496Z,8.30
2022-12-23T11:37:01.737Z,8.40
2022-12-23T11:39:36.702Z,8.40
2022-12-23T11:42:07.078Z,8.40
2022-12-23T11:44:35.981Z,8.40
2022-12-23T11:47:23.638Z,8.40
2022-12-23T11:49:52.527Z,8.40
2022-12-23T11:52:22.223Z,8.40
2022-12-23T11:54:54.674Z,8.40
2022-12-23T11:57:32.646Z,8.40
2022-12-23T12:00:02.868Z,8.40
2022-12-23T12:02:35.467Z,8.40
2022-12-23T12:05:08.705Z,8.40
2022-12-23T12:07:36.881Z,8.40
2022-12-23T12:10:04.556Z,8.40
2022-12-23T12:12:32.907Z,8.40
2022-12-23T12:15:00.121Z,8.40
2022-12-23T12:17:32.980Z,8.40
2022-12-23T12:20:04.945Z,8.40
2022-12-23T12:22:40.216Z,8.40
2022-12-23T12:25:15.834Z,8.50
2022-12-23T12:27:45.530Z,8.50
2022-12-23T12:30:18.320Z,8.50
2022-12-23T12:32:58.498Z,8.50
2022-12-23T12:35:34.041Z,8.50
2022-12-23T12:38:10.668Z,8.50
2022-12-23T12:40:41.851Z,8.50
2022-12-23T12:43:21.451Z,8.50
2022-12-23T12:45:52.488Z,8.50
2022-12-23T12:48:40.505Z,8.50
2022-12-23T12:51:16.511Z,8.50
2022-12-23T12:53:59.498Z,8.50
2022-12-23T12:56:33.789Z,8.50
2022-12-23T12:59:00.895Z,8.50
2022-12-23T13:01:38.260Z,8.60
2022-12-23T13:04:32.854Z,8.60
2022-12-23T13:07:07.468Z,8.60
2022-12-23T13:09:48.487Z,8.60
2022-12-23T13:12:25.497Z,8.60
2022-12-23T13:15:01.497Z,8.60
2022-12-23T13:17:35.854Z,8.60
2022-12-23T13:20:12.891Z,8.60
2022-12-23T13:22:40.433Z,8.70
2022-12-23T13:25:16.495Z,8.60
2022-12-23T13:27:49.273Z,8.60
2022-12-23T13:30:17.567Z,8.60
2022-12-23T13:33:06.648Z,8.70
2022-12-23T13:35:46.512Z,8.70
2022-12-23T13:38:30.022Z,8.70
2022-12-23T13:41:06.194Z,8.70
2022-12-23T13:43:41.879Z,8.70
2022-12-23T13:46:15.798Z,8.70
2022-12-23T13:48:53.594Z,8.70
2022-12-23T13:51:28.082Z,8.70
2022-12-23T13:54:04.439Z,8.70
2022-12-23T13:56:42.192Z,8.70
2022-12-23T13:59:10.257Z,8.70
2022-12-23T14:01:44.995Z,8.70
2022-12-23T14:04:32.162Z,8.70
2022-12-23T14:07:01.197Z,8.70
2022-12-23T14:09:34.521Z,8.70
2022-12-23T14:12:19.516Z,8.70
2022-12-23T14:14:58.157Z,8.70
2022-12-23T14:17:31.396Z,8.70
2022-12-23T14:20:08.901Z,8.70
2022-12-23T14:22:56.707Z,8.70
2022-12-23T14:25:35.746Z,8.70
2022-12-23T14:28:13.067Z,8.80
2022-12-23T14:30:42.133Z,8.70
2022-12-23T14:33:15.822Z,8.80
2022-12-23T14:36:21.952Z,8.70
2022-12-23T14:39:18.533Z,8.80
2022-12-23T14:41:50.474Z,8.80
2022-12-23T14:44:43.379Z,8.80
2022-12-23T14:47:30.024Z,8.80
2022-12-23T14:49:56.936Z,8.80
2022-12-23T14:52:48.098Z,8.80
2022-12-23T14:55:39.472Z,8.80
2022-12-23T14:58:17.071Z,8.80
2022-12-23T15:00:49.959Z,8.80
2022-12-23T15:03:17.360Z,8.80
2022-12-23T15:05:44.265Z,8.80
2022-12-23T15:08:28.525Z,8.80
2022-12-23T15:10:56.508Z,8.80
2022-12-23T15:13:25.492Z,8.90
2022-12-23T15:16:00.912Z,8.80
2022-12-23T15:18:28.827Z,8.90
2022-12-23T15:21:03.575Z,8.80
2022-12-23T15:23:30.551Z,8.90
2022-12-23T15:25:59.193Z,8.80
2022-12-23T15:28:34.941Z,8.90
2022-12-23T15:31:03.994Z,8.80
2022-12-23T15:34:02.104Z,8.80
2022-12-23T15:36:28.214Z,8.90
2022-12-23T15:38:54.966Z,8.90
2022-12-23T15:41:21.694Z,8.90
2022-12-23T15:43:48.630Z,8.90
2022-12-23T15:46:23.400Z,8.90
2022-12-23T15:48:53.929Z,8.90
2022-12-23T15:51:57.921Z,8.90
2022-12-23T15:54:22.261Z,8.90
2022-12-23T15:56:52.058Z,8.90
2022-12-23T15:59:23.301Z,8.90
2022-12-23T16:01:51.593Z,8.90
2022-12-23T16:04:22.496Z,8.90
2022-12-23T16:06:51.140Z,8.90
2022-12-23T16:09:34.243Z,8.90
2022-12-23T16:12:03.569Z,8.90
2022-12-23T16:14:36.862Z,8.90
2022-12-23T16:17:15.981Z,9.00
2022-12-23T16:19:46.132Z,8.90
2022-12-23T16:22:21.417Z,9.00
2022-12-23T16:24:52.265Z,9.00
2022-12-23T16:27:25.451Z,9.00
2022-12-23T16:29:52.281Z,9.00
2022-12-23T16:32:20.944Z,9.00
2022-12-23T16:34:50.506Z,9.00
2022-12-23T16:37:17.242Z,9.00
2022-12-23T16:39:44.046Z,9.00
2022-12-23T16:42:10.779Z,9.00
2022-12-23T16:44:37.681Z,9.00
2022-12-23T16:47:08.168Z,9.10
2022-12-23T16:49:37.952Z,9.10
2022-12-23T16:52:06.521Z,9.10
2022-12-23T16:54:33.221Z,9.10
2022-12-23T16:57:00.155Z,9.10
2022-12-23T16:59:26.859Z,9.10
2022-12-23T17:01:55.530Z,9.10
2022-12-23T17:04:26.333Z,9.10
2022-12-23T17:06:55.555Z,9.10
2022-12-23T17:09:22.251Z,9.10
2022-12-23T17:11:52.713Z,9.10
2022-12-23T17:14:22.245Z,9.10
2022-12-23T17:16:49.614Z,9.20
2022-12-23T17:19:27.307Z,9.20
2022-12-23T17:22:00.921Z,9.20
2022-12-23T17:24:27.926Z,9.20
2022-12-23T17:26:55.270Z,9.20
2022-12-23T17:29:22.274Z,9.20
2022-12-23T17:31:50.097Z,9.20
2022-12-23T17:34:19.135Z,9.20
2022-12-23T17:36:50.268Z,9.20
2022-12-23T17:39:18.697Z,9.20
2022-12-23T17:41:45.811Z,9.20
2022-12-23T17:44:14.521Z,9.20
2022-12-23T17:46:41.286Z,9.20
2022-12-23T17:49:08.759Z,9.30
2022-12-23T17:51:35.786Z,9.30
2022-12-23T17:54:02.511Z,9.30
2022-12-23T17:56:31.230Z,9.30
2022-12-23T17:58:58.001Z,9.30
2022-12-23T18:01:26.799Z,9.30
2022-12-23T18:03:54.117Z,9.30
2022-12-23T18:06:22.234Z,9.30
2022-12-23T18:08:49.526Z,9.30
2022-12-23T18:11:20.309Z,9.30
2022-12-23T18:13:49.939Z,9.30
2022-12-23T18:16:16.687Z,9.30
2022-12-23T18:18:46.526Z,9.30
2022-12-23T18:21:20.778Z,9.30
2022-12-23T18:23:47.719Z,9.30
2022-12-23T18:26:15.177Z,9.40
2022-12-23T18:28:42.003Z,9.40
2022-12-23T18:31:15.721Z,9.40
2022-12-23T18:33:42.602Z,9.40
2022-12-23T18:36:20.309Z,9.40
2022-12-23T18:38:47.136Z,9.40
2022-12-23T18:41:13.871Z,9.40
2022-12-23T18:43:40.787Z,9.40
2022-12-23T18:46:07.587Z,9.40
2022-12-23T18:48:35.825Z,9.40
2022-12-23T18:51:02.596Z,9.40
2022-12-23T18:53:29.388Z,9.40
2022-12-23T18:55:56.171Z,9.50
2022-12-23T18:58:23.407Z,9.50
2022-12-23T19:00:51.093Z,9.50
2022-12-23T19:03:22.146Z,9.50
2022-12-23T19:05:52.109Z,9.50
2022-12-23T19:08:25.799Z,9.50
2022-12-23T19:10:54.428Z,9.50
2022-12-23T19:13:21.217Z,9.50
2022-12-23T19:15:47.965Z,9.50
2022-12-23T19:18:16.623Z,9.50
2022-12-23T19:20:43.769Z,9.50
2022-12-23T19:23:12.522Z,9.50
2022-12-23T19:25:40.577Z,9.50
2022-12-23T19:28:07.384Z,9.60
2022-12-23T19:30:34.224Z,9.60
2022-12-23T19:33:00.997Z,9.60
2022-12-23T19:35:27.757Z,9.60
2022-12-23T19:37:54.539Z,9.60
2022-12-23T19:40:22.579Z,9.60
2022-12-23T19:42:49.395Z,9.60
2022-12-23T19:45:16.149Z,9.60
2022-12-23T19:47:42.926Z,9.60
2022-12-23T19:50:11.612Z,9.60
2022-12-23T19:52:38.385Z,9.60
2022-12-23T19:55:05.895Z,9.60
2022-12-23T19:57:33.974Z,9.60
2022-12-23T20:00:00.687Z,9.60
2022-12-23T20:02:27.426Z,9.70
2022-12-23T20:04:54.263Z,9.60
2022-12-23T20:07:20.982Z,9.70
2022-12-23T20:09:47.687Z,9.70
2022-12-23T20:12:14.434Z,9.70
2022-12-23T20:14:42.555Z,9.70
2022-12-23T20:17:09.376Z,9.70
2022-12-23T20:19:39.161Z,9.70
2022-12-23T20:22:10.595Z,9.70
2022-12-23T20:24:37.366Z,9.70
2022-12-23T20:27:10.698Z,9.70
2022-12-23T20:29:38.211Z,9.70
2022-12-23T20:32:06.410Z,9.70
2022-12-23T20:34:38.603Z,9.70
2022-12-23T20:37:06.269Z,9.70
2022-12-23T20:39:33.093Z,9.70
2022-12-23T20:41:59.871Z,9.70
2022-12-23T20:44:35.649Z,9.60
2022-12-23T20:47:03.543Z,9.60
2022-12-23T20:49:31.762Z,9.60
2022-12-23T20:51:58.494Z,9.60
2022-12-23T20:54:32.166Z,9.60
2022-12-23T20:57:00.708Z,9.60
2022-12-23T20:59:27.537Z,9.50
2022-12-23T21:01:54.412Z,9.50
2022-12-23T21:04:21.213Z,9.60
2022-12-23T21:06:49.676Z,9.50
2022-12-23T21:09:16.601Z,9.50
2022-12-23T21:11:45.671Z,9.50
2022-12-23T21:14:13.846Z,9.50
2022-12-23T21:16:41.000Z,9.50
2022-12-23T21:19:15.659Z,9.50
2022-12-23T21:21:42.468Z,9.60
2022-12-23T21:24:11.454Z,9.60
2022-12-23T21:26:38.882Z,9.60
2022-12-23T21:29:07.304Z,9.60
2022-12-23T21:31:37.186Z,9.60
2022-12-23T21:34:04.912Z,9.60
2022-12-23T21:36:34.341Z,9.60
2022-12-23T21:39:01.691Z,9.60
2022-12-23T21:41:33.952Z,9.60
2022-12-23T21:44:00.739Z,9.60
2022-12-23T21:46:28.774Z,9.60
2022-12-23T21:48:56.257Z,9.60
2022-12-23T21:51:25.144Z,9.60
2022-12-23T21:53:54.438Z,9.60
2022-12-23T21:56:23.164Z,9.70
2022-12-23T21:58:55.516Z,9.70
2022-12-23T22:01:22.396Z,9.70
2022-12-23T22:03:50.679Z,9.70
2022-12-23T22:06:19.731Z,9.70
2022-12-23T22:08:46.976Z,9.70
2022-12-23T22:11:15.844Z,9.70
2022-12-23T22:13:43.517Z,9.70
2022-12-23T22:16:13.815Z,9.70
2022-12-23T22:18:41.269Z,9.70
2022-12-23T22:21:10.502Z,9.70
2022-12-23T22:23:37.965Z,9.70
2022-12-23T22:26:05.413Z,9.70
2022-12-23T22:28:33.659Z,9.70
2022-12-23T22:31:04.538Z,9.80
2022-12-23T22:33:33.070Z,9.80
2022-12-23T22:36:00.527Z,9.80
2022-12-23T22:38:27.344Z,9.80
2022-12-23T22:40:54.093Z,9.80
2022-12-23T22:43:20.933Z,9.80
2022-12-23T22:45:54.916Z,9.80
2022-12-23T22:48:22.011Z,9.80
2022-12-23T22:50:50.083Z,9.80
2022-12-23T22:53:16.959Z,9.80
2022-12-23T22:55:43.688Z,9.80
2022-12-23T22:58:10.513Z,9.80
2022-12-23T23:00:37.277Z,9.80
2022-12-23T23:03:04.379Z,9.80
2022-12-23T23:05:31.169Z,9.80
2022-12-23T23:07:59.244Z,9.80
2022-12-23T23:10:25.996Z,9.80
2022-12-23T23:12:52.763Z,9.80
2022-12-23T23:15:19.467Z,9.80
2022-12-23T23:17:46.169Z,9.80
2022-12-23T23:20:13.024Z,9.80
2022-12-23T23:22:39.731Z,9.80
2022-12-23T23:25:08.944Z,9.80
2022-12-23T23:27:35.731Z,9.90
2022-12-23T23:30:02.469Z,9.80
2022-12-23T23:32:29.312Z,9.80
2022-12-23T23:34:56.047Z,9.80
2022-12-23T23:37:22.819Z,9.80
2022-12-23T23:39:49.550Z,9.90
2022-12-23T23:42:17.642Z,9.90
2022-12-23T23:44:44.492Z,9.90
2022-12-23T23:47:11.318Z,9.80
2022-12-23T23:49:38.092Z,9.80
2022-12-23T23:52:05.166Z,9.80
2022-12-23T23:54:31.903Z,9.90
2022-12-23T23:56:58.752Z,9.90
2022-12-23T23:59:26.864Z,9.80
